createdAt,value
2019-01-18T00:00:25.003Z,1.13
2019-01-18T00:06:09.662Z,1.13
2019-01-18T00:09:11.685Z,1.67
2019-01-18T00:12:12.706Z,1.53
2019-01-18T00:15:14.251Z,1.77
2019-01-18T00:21:00.162Z,1.07
2019-01-18T00:26:46.390Z,2.20
2019-01-18T00:32:32.725Z,1.63
2019-01-18T00:35:33.935Z,1.83
2019-01-18T00:41:19.722Z,1.00
2019-01-18T00:47:04.947Z,2.30
2019-01-18T00:52:51.257Z,2.70
2019-01-18T00:55:52.385Z,0.93
2019-01-18T01:01:38.538Z,1.03
2019-01-18T01:07:23.771Z,1.10
2019-01-18T01:13:09.393Z,1.80
2019-01-18T01:16:11.249Z,0.97
2019-01-18T01:21:56.028Z,1.83
2019-01-18T01:27:41.985Z,1.93
2019-01-18T01:33:28.119Z,0.90
2019-01-18T01:36:29.322Z,0.90
2019-01-18T01:42:14.095Z,1.53
2019-01-18T01:48:00.466Z,2.90
2019-01-18T01:53:46.274Z,1.37
2019-01-18T01:56:47.910Z,0.87
2019-01-18T02:02:33.746Z,1.63
2019-01-18T02:05:36.257Z,0.90
2019-01-18T02:08:37.080Z,1.17
2019-01-18T02:14:23.622Z,1.63
2019-01-18T02:20:09.723Z,2.30
2019-01-18T02:23:10.412Z,1.47
2019-01-18T02:28:56.007Z,1.70
2019-01-18T02:31:58.394Z,1.43
2019-01-18T02:34:59.223Z,2.57
2019-01-18T02:40:44.069Z,3.57
2019-01-18T02:46:30.773Z,5.77
2019-01-18T02:49:31.773Z,3.90
2019-01-18T02:55:17.588Z,3.87
2019-01-18T03:01:03.023Z,3.30
2019-01-18T03:06:53.606Z,2.60
2019-01-18T03:12:39.984Z,15.87
2019-01-18T03:15:41.664Z,3.77
2019-01-18T03:21:27.220Z,2.00
2019-01-18T03:24:29.335Z,3.43
2019-01-18T03:27:30.255Z,9.90
2019-01-18T03:33:16.939Z,14.27
2019-01-18T03:39:03.295Z,11.30
2019-01-18T03:42:04.041Z,15.33
2019-01-18T03:47:49.677Z,5.00
2019-01-18T03:53:35.304Z,4.93
2019-01-18T03:59:22.150Z,8.60
2019-01-18T04:05:08.521Z,4.43
2019-01-18T04:08:09.650Z,6.80
2019-01-18T04:13:55.964Z,2.30
2019-01-18T04:19:41.498Z,1.20
2019-01-18T04:25:26.427Z,2.73
2019-01-18T04:31:12.120Z,2.73
2019-01-18T04:34:13.595Z,4.90
2019-01-18T04:39:58.394Z,3.07
2019-01-18T04:45:49.958Z,3.77
2019-01-18T04:51:35.534Z,8.50
2019-01-18T04:54:37.072Z,3.53
2019-01-18T05:00:21.781Z,4.27
2019-01-18T05:06:02.380Z,2.90
2019-01-18T05:11:47.782Z,5.25
2019-01-18T05:14:48.376Z,2.47
2019-01-18T05:20:34.557Z,5.10
2019-01-18T05:26:20.843Z,2.80
2019-01-18T05:32:06.146Z,3.03
2019-01-18T05:37:51.055Z,4.50
2019-01-18T05:40:51.619Z,4.03
2019-01-18T05:46:38.095Z,5.87
2019-01-18T05:52:24.862Z,5.10
2019-01-18T05:58:10.935Z,3.57
2019-01-18T06:01:12.559Z,4.23
2019-01-18T06:06:58.332Z,5.47
2019-01-18T06:12:44.343Z,5.70
2019-01-18T06:15:45.866Z,3.92
2019-01-18T06:21:30.766Z,5.13
2019-01-18T06:24:32.937Z,4.03
2019-01-18T06:27:34.483Z,2.73
2019-01-18T06:33:21.054Z,4.37
2019-01-18T06:36:22.159Z,3.63
2019-01-18T06:42:08.331Z,5.47
2019-01-18T06:47:54.025Z,3.53
2019-01-18T06:53:39.623Z,3.03
2019-01-18T06:59:24.623Z,3.37
2019-01-18T07:02:25.951Z,3.87
2019-01-18T07:08:12.558Z,5.73
2019-01-18T07:13:58.145Z,3.67
2019-01-18T07:19:44.699Z,4.87
2019-01-18T07:22:45.825Z,3.07
2019-01-18T07:28:32.513Z,4.13
2019-01-18T07:34:19.219Z,4.13
2019-01-18T07:40:05.071Z,9.43
2019-01-18T07:43:06.557Z,7.87
2019-01-18T07:48:51.978Z,5.47
2019-01-18T07:54:37.854Z,7.50
2019-01-18T08:00:24.498Z,10.67
2019-01-18T08:03:25.747Z,10.47
2019-01-18T08:09:11.245Z,25.60
2019-01-18T08:14:57.446Z,18.97
2019-01-18T08:20:43.381Z,16.47
2019-01-18T08:26:29.238Z,5.40
2019-01-18T08:29:30.607Z,5.50
2019-01-18T08:35:16.251Z,5.57
2019-01-18T08:41:02.681Z,7.87
2019-01-18T08:46:48.381Z,6.27
2019-01-18T08:52:34.896Z,7.23
2019-01-18T08:55:36.234Z,4.40
2019-01-18T09:01:22.887Z,7.00
2019-01-18T09:07:09.342Z,6.07
2019-01-18T09:12:54.721Z,6.47
2019-01-18T09:18:39.531Z,8.63
2019-01-18T09:21:40.581Z,7.77
2019-01-18T09:27:27.019Z,5.83
2019-01-18T09:33:12.963Z,6.57
2019-01-18T09:38:59.273Z,7.20
2019-01-18T09:44:45.001Z,7.93
2019-01-18T09:50:31.265Z,5.30
2019-01-18T09:56:16.141Z,7.47
2019-01-18T09:59:17.598Z,7.63
2019-01-18T10:04:58.072Z,5.80
2019-01-18T10:10:44.707Z,7.27
2019-01-18T10:16:34.375Z,7.63
2019-01-18T10:19:36.754Z,6.33
2019-01-18T10:22:38.434Z,8.33
2019-01-18T10:25:39.746Z,6.50
2019-01-18T10:31:25.385Z,7.17
2019-01-18T10:37:11.194Z,4.93
2019-01-18T10:42:56.075Z,6.37
2019-01-18T10:46:02.563Z,4.70
2019-01-18T10:51:48.259Z,6.83
2019-01-18T10:57:33.878Z,6.23
2019-01-18T11:00:36.667Z,5.57
2019-01-18T11:03:38.097Z,7.00
2019-01-18T11:06:39.395Z,6.73
2019-01-18T11:12:25.283Z,8.60
2019-01-18T11:18:11.379Z,3.47
2019-01-18T11:21:12.114Z,4.23
2019-01-18T11:26:57.957Z,4.67
2019-01-18T11:32:43.122Z,6.60
2019-01-18T11:38:27.998Z,8.90
2019-01-18T11:44:14.463Z,5.00
2019-01-18T11:47:17.209Z,4.07
2019-01-18T11:53:03.010Z,7.97
2019-01-18T11:58:49.515Z,5.03
2019-01-18T12:04:35.931Z,3.90
2019-01-18T12:07:36.994Z,3.80
2019-01-18T12:13:17.464Z,2.30
2019-01-18T12:19:02.427Z,3.80
2019-01-18T12:24:47.952Z,6.13
2019-01-18T12:27:49.436Z,2.40
2019-01-18T12:33:35.215Z,2.93
2019-01-18T12:39:16.534Z,2.80
2019-01-18T12:44:56.978Z,6.90
2019-01-18T12:47:58.878Z,3.47
2019-01-18T12:53:39.416Z,4.07
2019-01-18T12:59:25.642Z,5.63
2019-01-18T13:05:10.906Z,3.33
2019-01-18T13:08:11.272Z,5.40
2019-01-18T13:14:16.727Z,13.27
2019-01-18T13:17:19.218Z,5.37
2019-01-18T13:20:22.983Z,5.50
2019-01-18T13:23:23.405Z,3.53
2019-01-18T13:29:09.249Z,2.60
2019-01-18T13:34:54.109Z,3.00
2019-01-18T13:40:39.486Z,5.70
2019-01-18T13:43:40.724Z,2.73
2019-01-18T13:49:26.580Z,4.60
2019-01-18T13:55:11.479Z,4.00
2019-01-18T14:00:56.798Z,4.63
2019-01-18T14:03:58.067Z,2.03
2019-01-18T14:09:42.838Z,3.37
2019-01-18T14:15:28.070Z,4.57
2019-01-18T14:21:13.343Z,4.93
2019-01-18T14:24:14.652Z,3.37
2019-01-18T14:30:42.032Z,4.07
2019-01-18T14:36:28.897Z,3.37
2019-01-18T14:39:31.741Z,2.83
2019-01-18T14:45:16.780Z,4.73
2019-01-18T15:06:00.565Z,2.50
2019-01-18T15:11:46.774Z,4.70
2019-01-18T15:14:47.785Z,1.70
2019-01-18T15:17:49.357Z,3.70
2019-01-18T15:21:38.008Z,5.03
2019-01-18T15:27:23.948Z,3.67
2019-01-18T15:30:25.443Z,2.53
2019-01-18T15:36:10.547Z,3.00
2019-01-18T15:41:56.754Z,4.17
2019-01-18T15:47:42.267Z,9.00
2019-01-18T15:53:27.966Z,3.53
2019-01-18T15:56:29.546Z,2.57
2019-01-18T16:02:16.010Z,5.60
2019-01-18T16:08:01.690Z,2.70
2019-01-18T16:13:48.118Z,5.60
2019-01-18T16:16:49.182Z,4.90
2019-01-18T16:22:34.062Z,2.63
2019-01-18T16:25:35.342Z,4.40
2019-01-18T16:28:35.971Z,5.53
2019-01-18T16:34:21.258Z,4.80
2019-01-18T16:37:22.890Z,5.40
2019-01-18T16:43:08.838Z,5.87
2019-01-18T16:48:54.484Z,2.17
2019-01-18T16:54:39.194Z,4.43
2019-01-18T16:57:40.335Z,4.23
2019-01-18T17:03:30.166Z,4.07
2019-01-18T17:09:11.809Z,2.97
2019-01-18T17:14:58.455Z,4.40
2019-01-18T17:17:59.143Z,3.43
2019-01-18T17:23:44.071Z,5.13
2019-01-18T17:29:28.883Z,4.00
2019-01-18T17:35:15.940Z,6.20
2019-01-18T17:38:17.081Z,7.10
2019-01-18T17:41:19.162Z,5.03
2019-01-18T17:44:20.418Z,3.70
2019-01-18T17:53:11.829Z,8.57
2019-01-18T17:56:12.254Z,4.03
2019-01-18T18:01:58.049Z,2.60
2019-01-18T18:07:43.307Z,2.70
2019-01-18T18:10:44.441Z,5.03
2019-01-18T18:16:30.277Z,5.43
2019-01-18T18:22:15.035Z,4.83
2019-01-18T18:28:01.506Z,4.53
2019-01-18T18:33:50.549Z,4.93
2019-01-18T18:39:35.061Z,9.93
2019-01-18T18:45:20.585Z,7.67
2019-01-18T18:48:22.033Z,8.03
2019-01-18T18:54:07.249Z,8.40
2019-01-18T18:59:52.141Z,6.57
2019-01-18T19:02:57.387Z,7.83
2019-01-18T19:05:58.787Z,6.10
2019-01-18T19:11:43.667Z,6.37
2019-01-18T19:14:44.164Z,6.07
2019-01-18T19:20:29.962Z,9.10
2019-01-18T19:26:15.791Z,7.47
2019-01-18T19:32:00.519Z,6.97
2019-01-18T19:37:46.834Z,8.93
2019-01-18T19:43:31.442Z,7.40
2019-01-18T19:49:17.913Z,8.83
2019-01-18T19:52:19.419Z,7.03
2019-01-18T19:58:05.358Z,7.13
2019-01-18T20:03:51.837Z,7.10
2019-01-18T20:09:36.911Z,8.27
2019-01-18T20:15:21.702Z,7.03
2019-01-18T20:21:06.093Z,8.40
2019-01-18T20:24:07.609Z,9.07
2019-01-18T20:29:53.587Z,7.73
2019-01-18T20:35:39.599Z,6.33
2019-01-18T20:41:25.330Z,10.17
2019-01-18T20:47:11.660Z,7.90
2019-01-18T20:52:58.111Z,10.53
2019-01-18T20:58:43.827Z,10.90
2019-01-18T21:04:33.318Z,9.47
2019-01-18T21:07:31.887Z,9.30
2019-01-18T21:13:18.415Z,8.03
2019-01-18T21:19:03.732Z,10.83
2019-01-18T21:24:50.035Z,8.57
2019-01-18T21:27:51.477Z,10.40
2019-01-18T21:33:37.407Z,8.53
2019-01-18T21:39:22.591Z,11.43
2019-01-18T21:45:08.639Z,7.03
2019-01-18T21:50:54.302Z,8.47
2019-01-18T21:53:55.904Z,10.33
2019-01-18T21:59:40.864Z,10.57
2019-01-18T22:05:26.257Z,8.27
2019-01-18T22:08:28.454Z,9.90
2019-01-18T22:11:29.451Z,15.93
2019-01-18T22:14:30.777Z,11.33
2019-01-18T22:20:16.482Z,13.93
2019-01-18T22:26:02.850Z,13.73
2019-01-18T22:29:04.217Z,13.50
2019-01-18T22:32:05.098Z,11.50
2019-01-18T22:37:50.164Z,12.23
2019-01-18T22:43:35.639Z,9.73
2019-01-18T22:49:21.933Z,10.67
2019-01-18T22:52:23.407Z,10.93
2019-01-18T22:58:08.983Z,12.90
2019-01-18T23:03:54.843Z,11.10
2019-01-18T23:09:40.402Z,8.13
2019-01-18T23:12:42.239Z,8.83
2019-01-18T23:18:28.282Z,12.40
2019-01-18T23:24:14.069Z,8.93
2019-01-18T23:27:17.554Z,10.53
2019-01-18T23:30:18.803Z,10.43
2019-01-18T23:36:04.486Z,10.40
2019-01-18T23:41:50.095Z,8.70
2019-01-18T23:44:51.409Z,9.00
2019-01-18T23:50:37.199Z,9.67
2019-01-18T23:56:22.677Z,9.57
